Time;durP1;ratioP1;P1;durP2;ratioP2;P2;SDS_P1;SDS_P2;PMS_P1;PMS_P2;Temp;Humidity;BMP_temperature;BMP_pressure;BME280_temperature;BME280_humidity;BME280_pressure;Samples;Min_cycle;Max_cycle;Signal;HPM_P1;HPM_P2
2021/05/18 00:00:13;;;;;;;19.65;7.75;;;;;;;11.03;100.00;100510.16;5010778;28;20065;-77
2021/05/18 00:02:39;;;;;;;20.35;8.75;;;;;;;11.03;100.00;100510.16;5008631;28;20382;-77
2021/05/18 00:05:07;;;;;;;21.63;10.52;;;;;;;11.02;100.00;100515.63;5011461;28;20037;-76
2021/05/18 00:07:34;;;;;;;17.48;9.63;;;;;;;11.01;100.00;100517.44;5009280;28;20031;-76
2021/05/18 00:12:44;;;;;;;16.90;8.88;;;;;;;11.04;99.85;100522.63;5009010;28;20034;-76
2021/05/18 00:15:13;;;;;;;19.95;10.32;;;;;;;11.05;99.88;100508.19;5005773;28;20026;-77
2021/05/18 00:17:40;;;;;;;23.05;10.50;;;;;;;11.04;99.83;100511.88;5008268;28;20034;-76
2021/05/18 00:20:09;;;;;;;23.40;9.73;;;;;;;11.07;99.62;100521.53;5009517;28;20022;-76
2021/05/18 00:22:35;;;;;;;22.20;9.73;;;;;;;11.07;99.54;100508.97;5019589;28;20482;-76
2021/05/18 00:25:00;;;;;;;19.83;10.23;;;;;;;11.10;99.38;100510.56;5011673;28;20038;-76
2021/05/18 00:27:29;;;;;;;23.92;12.25;;;;;;;11.09;99.50;100507.03;5016466;28;20026;-76
2021/05/18 00:29:55;;;;;;;23.58;11.07;;;;;;;11.09;99.99;100508.84;5010397;28;20080;-76
2021/05/18 00:32:21;;;;;;;24.35;12.60;;;;;;;11.10;100.00;100508.75;5011780;28;20030;-76
2021/05/18 00:34:48;;;;;;;27.98;11.40;;;;;;;11.08;100.00;100508.00;5013977;28;20040;-77
2021/05/18 00:37:14;;;;;;;24.35;13.02;;;;;;;11.13;100.00;100513.91;5012033;28;20034;-76
2021/05/18 00:39:39;;;;;;;27.15;13.43;;;;;;;11.07;100.00;100511.63;4994349;28;20449;-77
2021/05/18 00:42:14;;;;;;;30.65;15.23;;;;;;;11.05;100.00;100518.09;5010803;28;20053;-76
2021/05/18 00:44:39;;;;;;;30.83;16.83;;;;;;;11.00;100.00;100515.72;5016284;28;20064;-78
2021/05/18 00:47:04;;;;;;;30.52;16.25;;;;;;;11.02;100.00;100513.78;5012812;28;20455;-78
2021/05/18 00:49:30;;;;;;;32.20;16.73;;;;;;;10.97;100.00;100515.94;4995226;28;20038;-77
2021/05/18 00:51:55;;;;;;;30.85;17.15;;;;;;;11.00;100.00;100518.41;5007645;28;20045;-77
2021/05/18 00:54:25;;;;;;;28.15;16.58;;;;;;;10.94;100.00;100519.69;4992563;28;20083;-77
2021/05/18 00:59:38;;;;;;;30.95;17.23;;;;;;;10.90;100.00;100520.00;5013464;28;20034;-77
2021/05/18 01:02:04;;;;;;;31.33;15.82;;;;;;;10.96;100.00;100519.59;4993197;28;20033;-78
2021/05/18 01:04:29;;;;;;;29.10;16.23;;;;;;;10.92;100.00;100518.09;5016816;28;20084;-78
2021/05/18 01:06:56;;;;;;;30.00;16.38;;;;;;;10.95;100.00;100512.50;5002779;28;20064;-78
2021/05/18 01:09:21;;;;;;;31.15;16.35;;;;;;;10.92;100.00;100512.72;4992787;28;20028;-78
2021/05/18 01:11:48;;;;;;;32.38;16.27;;;;;;;10.93;100.00;100517.97;4992999;28;20029;-82
2021/05/18 01:14:18;;;;;;;31.20;17.05;;;;;;;10.93;100.00;100514.41;5013384;28;20428;-78
2021/05/18 01:16:49;;;;;;;27.60;14.80;;;;;;;10.96;100.00;100514.22;5011810;28;20029;-77
2021/05/18 01:19:20;;;;;;;27.92;15.30;;;;;;;10.97;100.00;100515.94;5008685;28;20510;-77
2021/05/18 01:21:46;;;;;;;29.95;15.93;;;;;;;11.01;100.00;100516.56;4990640;28;20116;-77
2021/05/18 01:24:16;;;;;;;28.55;16.33;;;;;;;11.02;100.00;100519.16;4992067;28;20031;-78
2021/05/18 01:26:45;;;;;;;32.05;17.30;;;;;;;10.99;100.00;100516.69;5006159;28;20494;-77
2021/05/18 01:29:12;;;;;;;28.15;16.75;;;;;;;11.02;100.00;100518.31;5009619;28;20076;-79
2021/05/18 01:31:47;;;;;;;24.30;14.80;;;;;;;11.01;100.00;100522.81;5010221;28;20521;-78
2021/05/18 01:34:13;;;;;;;27.25;14.35;;;;;;;11.02;100.00;100516.47;4987293;28;20363;-77
2021/05/18 01:36:42;;;;;;;26.20;15.55;;;;;;;11.04;100.00;100522.63;5012819;28;20390;-78
2021/05/18 01:39:28;;;;;;;22.23;13.90;;;;;;;11.04;100.00;100511.88;5010927;28;20378;-78
2021/05/18 01:44:38;;;;;;;22.52;14.40;;;;;;;11.08;100.00;100513.38;5010391;28;20427;-78
2021/05/18 01:47:06;;;;;;;25.90;14.75;;;;;;;11.10;100.00;100530.25;5014209;28;20104;-78
2021/05/18 01:49:38;;;;;;;23.15;13.82;;;;;;;11.10;100.00;100529.38;4992169;28;20029;-77
2021/05/18 01:52:07;;;;;;;20.58;13.68;;;;;;;11.11;100.00;100520.38;5006507;28;20498;-77
2021/05/18 01:54:34;;;;;;;23.95;14.18;;;;;;;11.11;100.00;100531.09;5011225;28;20033;-77
2021/05/18 01:57:21;;;;;;;24.10;14.70;;;;;;;11.14;100.00;100529.06;5009368;28;20462;-77
2021/05/18 01:59:56;;;;;;;25.98;13.88;;;;;;;11.11;100.00;100533.78;4990880;28;20033;-77
2021/05/18 02:02:24;;;;;;;27.00;14.23;;;;;;;11.11;100.00;100536.47;5010422;28;20144;-77
2021/05/18 02:05:03;;;;;;;17.63;11.57;;;;;;;11.08;100.00;100529.47;5003027;28;20041;-78
2021/05/18 02:07:45;;;;;;;25.45;12.48;;;;;;;11.07;100.00;100525.06;5001844;28;20034;-78
2021/05/18 02:10:14;;;;;;;17.98;11.68;;;;;;;11.18;100.00;100529.69;5010979;28;20475;-78
2021/05/18 02:12:49;;;;;;;17.10;11.10;;;;;;;11.05;100.00;100532.38;4991296;28;20030;-78
2021/05/18 02:21:40;;;;;;;17.48;9.23;;;;;;;10.99;100.00;100529.25;5007250;28;20445;-78
2021/05/18 02:26:23;;;;;;;13.75;8.40;;;;;;;10.94;100.00;100540.31;5010855;28;20141;-78
2021/05/18 02:28:54;;;;;;;11.45;7.65;;;;;;;10.94;100.00;100537.63;5010365;28;20273;-77
2021/05/18 02:31:21;;;;;;;11.80;7.68;;;;;;;10.96;100.00;100541.06;5008356;28;20061;-77
2021/05/18 02:33:51;;;;;;;11.55;7.15;;;;;;;10.99;100.00;100543.53;5010551;28;20076;-76
2021/05/18 02:36:22;;;;;;;10.70;6.43;;;;;;;10.94;100.00;100537.63;5008009;28;20368;-77
2021/05/18 02:38:48;;;;;;;9.35;6.00;;;;;;;10.96;100.00;100541.06;5010267;28;20079;-78
2021/05/18 02:41:17;;;;;;;7.88;5.28;;;;;;;10.95;100.00;100539.34;5008401;28;20104;-78
2021/05/18 02:44:02;;;;;;;11.23;6.53;;;;;;;10.93;100.00;100528.69;5009084;28;20395;-78
2021/05/18 02:49:21;;;;;;;12.85;4.90;;;;;;;10.90;100.00;100533.44;5006849;28;20041;-78
2021/05/18 02:51:47;;;;;;;9.68;5.07;;;;;;;10.96;100.00;100535.69;5020778;28;20042;-78
2021/05/18 02:54:14;;;;;;;14.65;5.97;;;;;;;10.88;100.00;100533.53;5009053;28;20079;-78
2021/05/18 02:56:47;;;;;;;13.25;5.93;;;;;;;10.88;100.00;100538.91;5007502;28;20386;-78
2021/05/18 02:59:16;;;;;;;8.48;5.32;;;;;;;10.88;100.00;100546.09;5011451;28;20038;-78
2021/05/18 03:01:45;;;;;;;11.70;6.05;;;;;;;10.86;100.00;100540.81;5008756;28;20085;-78
2021/05/18 03:04:11;;;;;;;14.13;6.53;;;;;;;10.86;100.00;100540.00;5013837;28;20036;-78
2021/05/18 03:06:37;;;;;;;11.35;6.78;;;;;;;10.85;100.00;100538.28;5009289;28;20025;-77
2021/05/18 03:09:09;;;;;;;12.55;6.65;;;;;;;10.85;100.00;100544.50;4992399;28;20490;-78
2021/05/18 03:11:36;;;;;;;14.75;7.30;;;;;;;10.88;100.00;100538.03;5015183;28;20041;-78
2021/05/18 03:14:02;;;;;;;14.85;7.25;;;;;;;10.87;100.00;100539.88;4994640;28;20168;-78
2021/05/18 03:16:28;;;;;;;13.60;7.25;;;;;;;10.90;100.00;100541.50;5016832;28;20030;-78
2021/05/18 03:18:53;;;;;;;11.88;8.00;;;;;;;10.92;100.00;100543.09;5009527;28;20160;-78
2021/05/18 03:21:19;;;;;;;13.90;7.72;;;;;;;10.93;100.00;100547.50;5007656;28;20038;-77
2021/05/18 03:23:44;;;;;;;13.98;8.35;;;;;;;10.93;100.00;100541.25;5010001;28;20475;-78
2021/05/18 03:26:10;;;;;;;16.60;8.73;;;;;;;10.91;100.00;100543.22;5010542;28;20618;-78
2021/05/18 03:28:35;;;;;;;14.68;8.00;;;;;;;10.92;100.00;100539.56;5008970;28;20359;-78
2021/05/18 03:36:11;;;;;;;15.98;8.57;;;;;;;10.79;100.00;100546.75;5012133;28;20041;-77
2021/05/18 03:41:10;;;;;;;13.05;7.25;;;;;;;10.79;100.00;100549.44;5022860;28;20101;-78
2021/05/18 03:43:52;;;;;;;20.33;8.43;;;;;;;10.80;100.00;100541.25;5006155;28;20034;-78
2021/05/18 04:18:41;;;;;;;22.58;9.98;;;;;;;10.87;100.00;100564.03;5013972;28;20088;-78
2021/05/18 04:23:46;;;;;;;32.80;10.32;;;;;;;10.97;100.00;100572.34;5026779;28;20172;-78
2021/05/18 04:50:49;;;;;;;28.77;12.50;;;;;;;11.03;100.00;100574.59;5014566;28;20049;-77
2021/05/18 04:53:35;;;;;;;30.80;11.63;;;;;;;11.15;100.00;100581.81;5009833;28;20030;-78
2021/05/18 04:59:02;;;;;;;27.77;12.40;;;;;;;11.00;100.00;100580.16;5012602;28;20044;-78
2021/05/18 05:01:43;;;;;;;25.85;11.85;;;;;;;11.11;100.00;100582.16;5010559;28;20060;-78
2021/05/18 05:04:17;;;;;;;23.77;10.90;;;;;;;11.09;100.00;100581.38;5017606;28;20585;-78
2021/05/18 05:09:22;;;;;;;27.95;11.65;;;;;;;11.05;100.00;100588.78;5007212;28;20537;-78
2021/05/18 05:14:32;;;;;;;27.65;11.63;;;;;;;11.11;100.00;100600.94;5009240;28;20029;-79
2021/05/18 05:16:57;;;;;;;25.63;11.75;;;;;;;11.18;100.00;100607.59;5012443;28;20042;-78
2021/05/18 05:19:27;;;;;;;26.45;11.15;;;;;;;11.17;100.00;100597.84;5010849;28;20064;-78
2021/05/18 05:21:52;;;;;;;25.75;11.27;;;;;;;11.24;100.00;100605.34;5013605;28;20040;-79
2021/05/18 05:24:18;;;;;;;30.58;12.07;;;;;;;11.17;100.00;100598.66;4992509;28;20120;-78
2021/05/18 05:26:43;;;;;;;30.98;11.23;;;;;;;11.24;100.00;100602.66;5007638;28;20030;-78
2021/05/18 05:29:09;;;;;;;26.27;11.57;;;;;;;11.31;100.00;100606.66;5011254;28;20033;-78
2021/05/18 05:31:35;;;;;;;24.73;11.20;;;;;;;11.32;100.00;100604.81;5015713;28;20030;-78
2021/05/18 05:34:00;;;;;;;31.00;12.50;;;;;;;11.26;100.00;100607.94;5013652;28;20038;-78
2021/05/18 05:36:26;;;;;;;23.13;11.80;;;;;;;11.37;100.00;100610.75;5018366;28;20052;-78
2021/05/18 05:38:58;;;;;;;30.17;11.63;;;;;;;11.46;100.00;100611.94;4989878;28;20116;-79
2021/05/18 05:41:23;;;;;;;35.00;12.90;;;;;;;11.55;100.00;100603.22;5015145;28;20034;-78
2021/05/18 05:43:49;;;;;;;30.45;12.80;;;;;;;11.68;100.00;100604.06;5014070;28;20442;-79
2021/05/18 05:46:14;;;;;;;30.48;13.68;;;;;;;11.65;100.00;100604.31;5009825;28;20038;-79
2021/05/18 05:48:39;;;;;;;31.88;13.93;;;;;;;11.63;100.00;100611.63;5014316;28;20037;-78
2021/05/18 05:51:05;;;;;;;23.38;12.25;;;;;;;11.57;100.00;100612.91;5010977;28;20029;-79
2021/05/18 05:53:31;;;;;;;28.10;13.25;;;;;;;11.50;100.00;100621.50;5012624;28;20172;-79
2021/05/18 05:55:57;;;;;;;30.73;13.43;;;;;;;11.47;100.00;100616.34;4989521;28;20025;-79
2021/05/18 05:58:22;;;;;;;32.90;13.63;;;;;;;11.59;100.00;100616.34;5011566;28;20038;-79
2021/05/18 06:00:47;;;;;;;32.13;15.20;;;;;;;11.67;100.00;100615.78;4993963;28;20029;-79
2021/05/18 06:03:13;;;;;;;30.52;16.02;;;;;;;11.84;100.00;100611.97;5008910;28;20568;-78
2021/05/18 06:05:38;;;;;;;29.40;14.75;;;;;;;11.85;100.00;100613.69;5010573;28;20038;-78
2021/05/18 06:08:04;;;;;;;32.90;14.65;;;;;;;11.91;100.00;100622.16;4993651;28;20036;-80
2021/05/18 06:10:36;;;;;;;29.42;14.43;;;;;;;11.96;100.00;100624.53;5009603;28;20494;-78
2021/05/18 06:13:16;;;;;;;36.35;15.25;;;;;;;12.06;100.00;100626.44;5009738;28;20038;-79
2021/05/18 06:48:10;;;;;;;39.60;17.63;;;;;;;13.12;100.00;100650.00;5004006;28;20033;-77
2021/05/18 06:50:35;;;;;;;33.40;17.63;;;;;;;13.11;100.00;100658.16;4993351;28;20033;-77
2021/05/18 06:53:01;;;;;;;33.28;16.02;;;;;;;12.96;100.00;100660.19;5013848;28;20060;-77
2021/05/18 06:55:32;;;;;;;32.72;17.20;;;;;;;12.97;100.00;100657.38;4990921;28;20025;-77
2021/05/18 06:58:07;;;;;;;31.73;18.20;;;;;;;12.75;100.00;100659.09;4994388;28;20065;-77
2021/05/18 07:00:38;;;;;;;31.15;17.10;;;;;;;12.60;100.00;100661.06;4989525;28;20023;-77
2021/05/18 07:03:09;;;;;;;37.67;18.83;;;;;;;12.71;100.00;100669.25;5003354;28;20037;-78
2021/05/18 07:10:39;;;;;;;40.33;19.95;;;;;;;12.94;100.00;100671.09;5010378;28;20128;-76
2021/05/18 07:13:05;;;;;;;32.20;17.73;;;;;;;12.99;100.00;100681.50;5007120;28;20458;-78
2021/05/18 07:15:31;;;;;;;35.63;19.40;;;;;;;13.06;100.00;100687.31;5011367;28;20132;-77
2021/05/18 07:17:56;;;;;;;35.25;19.52;;;;;;;13.17;100.00;100690.06;4991641;28;20124;-78
2021/05/18 07:20:22;;;;;;;38.08;20.75;;;;;;;13.24;100.00;100685.94;5005381;28;20026;-77
2021/05/18 07:22:50;;;;;;;35.78;21.02;;;;;;;13.27;100.00;100685.69;5013375;28;20053;-78
2021/05/18 07:25:16;;;;;;;33.63;20.85;;;;;;;13.27;100.00;100685.69;5007805;28;20041;-77
2021/05/18 07:27:41;;;;;;;36.88;20.15;;;;;;;13.47;100.00;100690.44;5009424;28;20026;-77
2021/05/18 07:30:07;;;;;;;38.15;20.92;;;;;;;13.60;100.00;100702.00;4999215;28;20029;-77
2021/05/18 07:32:32;;;;;;;33.17;19.42;;;;;;;13.84;100.00;100701.06;5008911;28;20534;-77
2021/05/18 07:34:58;;;;;;;36.88;20.17;;;;;;;14.04;100.00;100700.38;5004289;28;20037;-77
2021/05/18 07:37:23;;;;;;;36.67;19.80;;;;;;;14.13;100.00;100702.34;5006449;28;20383;-77
2021/05/18 07:39:49;;;;;;;37.42;18.10;;;;;;;14.13;100.00;100705.06;5002672;28;20041;-79
2021/05/18 07:42:15;;;;;;;33.97;19.88;;;;;;;13.96;100.00;100705.50;4988543;28;20462;-77
2021/05/18 07:44:40;;;;;;;31.38;18.60;;;;;;;13.74;100.00;100701.81;5018849;28;20116;-79
2021/05/18 07:47:06;;;;;;;31.52;19.40;;;;;;;13.67;100.00;100711.34;5010914;28;20121;-78
2021/05/18 07:49:41;;;;;;;34.00;19.27;;;;;;;13.62;100.00;100708.16;4992684;28;20054;-78
2021/05/18 08:05:28;;;;;;;29.55;17.25;;;;;;;15.90;89.41;100711.00;5010017;28;20530;-77
2021/05/18 08:07:54;;;;;;;24.75;15.20;;;;;;;15.62;86.35;100708.94;5009980;28;20600;-77
2021/05/18 08:10:23;;;;;;;32.08;16.63;;;;;;;15.39;90.02;100710.88;5004469;28;20022;-78
2021/05/18 08:12:49;;;;;;;28.63;15.95;;;;;;;15.21;91.31;100705.16;5007464;28;20034;-78
2021/05/18 10:36:37;;;;;;;10.82;6.70;;;;;;;19.36;60.38;100718.16;5007437;28;20045;-80
2021/05/18 10:39:30;;;;;;;15.50;8.45;;;;;;;19.39;59.18;100709.66;4991458;28;20030;-80
2021/05/18 10:41:56;;;;;;;11.27;6.80;;;;;;;19.34;59.03;100723.75;4990696;28;20042;-79
2021/05/18 10:44:22;;;;;;;9.52;6.32;;;;;;;19.26;55.37;100715.47;5005843;28;20037;-78
2021/05/18 10:46:48;;;;;;;8.45;6.43;;;;;;;19.58;56.61;100719.56;4995328;28;20029;-79
2021/05/18 10:49:14;;;;;;;9.60;6.43;;;;;;;19.73;56.15;100726.19;5007524;28;20475;-79
2021/05/18 10:51:53;;;;;;;12.55;7.30;;;;;;;19.76;54.04;100717.69;4993887;28;20022;-79
2021/05/18 10:54:32;;;;;;;8.77;6.38;;;;;;;19.46;52.77;100718.09;5009963;28;20033;-79
2021/05/18 10:57:07;;;;;;;7.78;5.63;;;;;;;19.51;55.15;100721.19;4992485;28;20033;-79
2021/05/18 10:59:43;;;;;;;9.15;5.70;;;;;;;19.42;53.80;100720.25;5009419;28;20156;-79
2021/05/18 11:02:12;;;;;;;11.57;5.60;;;;;;;19.48;54.65;100721.53;5008097;28;20030;-79
2021/05/18 11:04:38;;;;;;;10.77;6.03;;;;;;;19.88;52.54;100715.56;5005720;28;20033;-78
2021/05/18 11:07:06;;;;;;;8.30;5.93;;;;;;;19.91;53.38;100718.84;5007421;28;20509;-79
2021/05/18 11:09:32;;;;;;;10.77;6.43;;;;;;;19.76;51.69;100725.84;5006915;28;20033;-80
2021/05/18 11:12:10;;;;;;;8.98;4.78;;;;;;;20.02;50.62;100728.63;5013335;28;20091;-79
2021/05/18 11:14:46;;;;;;;10.52;5.40;;;;;;;20.27;49.60;100729.63;5006188;28;20026;-79
2021/05/18 11:17:15;;;;;;;10.27;5.38;;;;;;;20.35;48.44;100730.59;4983825;28;20113;-80
2021/05/18 11:20:12;;;;;;;7.10;5.00;;;;;;;20.23;48.63;100730.97;5006888;28;20689;-78
2021/05/18 11:25:48;;;;;;;7.25;4.47;;;;;;;20.25;48.34;100720.75;5006493;28;20176;-80
2021/05/18 11:28:17;;;;;;;9.30;4.10;;;;;;;20.56;47.14;100724.72;5006265;28;20056;-80
2021/05/18 11:30:45;;;;;;;11.43;4.75;;;;;;;20.87;49.65;100720.41;5008729;28;20409;-79
2021/05/18 11:33:11;;;;;;;5.60;4.78;;;;;;;20.96;47.14;100729.50;5002763;28;20045;-79
2021/05/18 11:35:37;;;;;;;7.70;4.65;;;;;;;20.75;47.17;100727.19;5007965;28;20442;-80
2021/05/18 11:38:14;;;;;;;7.40;3.92;;;;;;;20.47;48.69;100729.28;5001749;28;20030;-79
2021/05/18 11:40:42;;;;;;;6.82;4.95;;;;;;;20.22;47.21;100734.72;4988528;28;20022;-78
2021/05/18 11:43:20;;;;;;;5.22;4.68;;;;;;;20.43;49.10;100732.50;5009464;28;20041;-79
2021/05/18 11:45:48;;;;;;;6.57;3.72;;;;;;;20.67;50.22;100724.44;4999502;28;20084;-79
2021/05/18 11:48:16;;;;;;;7.30;4.65;;;;;;;20.68;50.16;100726.13;5005973;28;20030;-80
2021/05/18 11:50:42;;;;;;;5.78;4.90;;;;;;;20.32;48.40;100746.34;5008497;28;20126;-78
2021/05/18 11:53:08;;;;;;;3.72;3.25;;;;;;;19.70;50.14;100757.28;5008260;28;20118;-80
2021/05/18 11:55:35;;;;;;;4.68;2.67;;;;;;;19.12;53.14;100756.84;5005828;28;20506;-79
2021/05/18 11:58:01;;;;;;;5.10;1.80;;;;;;;18.42;50.51;100768.28;5007495;28;20030;-79
2021/05/18 12:00:33;;;;;;;4.00;2.58;;;;;;;17.84;49.91;100765.69;5008684;28;20022;-79
2021/05/18 12:03:05;;;;;;;4.97;1.92;;;;;;;17.44;51.17;100765.78;4998407;28;20057;-79
2021/05/18 12:05:31;;;;;;;4.50;2.30;;;;;;;17.34;60.01;100762.22;5002852;28;20040;-78
2021/05/18 12:07:57;;;;;;;8.68;3.22;;;;;;;17.23;63.10;100756.91;5006680;28;20029;-77
2021/05/18 12:10:31;;;;;;;2.90;2.60;;;;;;;17.06;68.10;100760.31;5006822;28;20538;-78
2021/05/18 12:12:56;;;;;;;3.55;2.40;;;;;;;16.89;69.43;100759.13;5016247;28;20038;-79
2021/05/18 12:15:22;;;;;;;6.93;3.17;;;;;;;17.03;69.43;100764.16;5014818;28;20090;-78
2021/05/18 12:17:52;;;;;;;5.93;2.92;;;;;;;17.02;67.91;100761.59;5007061;28;20322;-78
2021/05/18 12:20:18;;;;;;;4.10;2.92;;;;;;;16.99;67.60;100771.69;5007690;28;20034;-79
2021/05/18 12:22:45;;;;;;;3.83;2.53;;;;;;;16.97;69.27;100767.44;4999830;28;20348;-79
2021/05/18 12:25:26;;;;;;;10.18;3.40;;;;;;;16.93;69.02;100772.25;4990180;28;20022;-79
2021/05/18 12:27:51;;;;;;;3.17;1.95;;;;;;;16.91;69.54;100766.09;5007068;28;20034;-81
2021/05/18 12:30:17;;;;;;;4.10;2.00;;;;;;;16.90;68.64;100769.84;4994283;28;20256;-80
2021/05/18 12:32:47;;;;;;;4.07;2.22;;;;;;;16.80;70.82;100768.94;5009033;28;20116;-79
2021/05/18 12:35:18;;;;;;;4.32;2.28;;;;;;;16.58;70.15;100767.25;5009392;28;20073;-78
2021/05/18 12:37:52;;;;;;;2.42;1.63;;;;;;;16.52;71.51;100773.22;5008643;28;20065;-78
2021/05/18 12:40:30;;;;;;;4.38;2.00;;;;;;;16.56;74.22;100752.97;5011636;28;20037;-78
2021/05/18 12:43:21;;;;;;;3.30;1.95;;;;;;;16.58;74.25;100753.69;5015251;28;20438;-78
2021/05/18 12:45:46;;;;;;;2.65;1.50;;;;;;;16.67;76.32;100754.75;5009889;28;20032;-77
2021/05/18 12:48:13;;;;;;;5.05;1.48;;;;;;;16.80;75.85;100744.53;5009318;28;20104;-79
2021/05/18 12:50:41;;;;;;;4.20;1.55;;;;;;;16.89;75.24;100749.13;5009344;28;20041;-80
2021/05/18 12:53:22;;;;;;;2.15;1.50;;;;;;;17.18;71.23;100753.75;5012124;28;20088;-82
2021/05/18 12:55:48;;;;;;;2.20;1.40;;;;;;;17.43;70.60;100745.09;4997416;28;20034;-79
2021/05/18 12:58:24;;;;;;;1.70;1.20;;;;;;;17.65;66.83;100750.25;5008364;28;20048;-79
2021/05/18 13:00:49;;;;;;;2.05;1.20;;;;;;;17.89;65.18;100746.25;4993055;28;20026;-79
2021/05/18 13:03:17;;;;;;;5.60;1.30;;;;;;;18.03;60.70;100743.06;5010950;28;20065;-81
2021/05/18 13:05:45;;;;;;;2.28;1.40;;;;;;;18.16;61.59;100739.03;4992804;28;20117;-79
2021/05/18 13:08:18;;;;;;;3.38;1.80;;;;;;;18.17;59.15;100738.03;4994458;28;20080;-79
2021/05/18 13:13:12;;;;;;;4.15;3.00;;;;;;;18.18;56.29;100745.19;5012127;28;20080;-80
2021/05/18 13:15:38;;;;;;;5.75;4.43;;;;;;;18.25;57.14;100740.03;5007734;28;20041;-79
2021/05/18 13:18:06;;;;;;;4.72;3.95;;;;;;;18.34;61.05;100741.84;5023740;28;20052;-80
2021/05/18 13:20:45;;;;;;;6.97;5.40;;;;;;;18.76;59.03;100731.41;5010790;28;20075;-81
2021/05/18 13:23:26;;;;;;;7.07;5.80;;;;;;;18.74;57.68;100736.16;5008235;28;20053;-78
2021/05/18 13:28:37;;;;;;;4.40;3.80;;;;;;;19.03;57.42;100735.97;5012001;28;20080;-77
2021/05/18 13:31:03;;;;;;;5.07;2.13;;;;;;;18.83;52.11;100747.97;5009295;28;20064;-80
2021/05/18 13:33:28;;;;;;;2.72;1.85;;;;;;;18.58;51.33;100747.66;5009460;28;20513;-85
2021/05/18 13:35:54;;;;;;;2.70;1.80;;;;;;;18.48;53.61;100746.81;5006635;28;20145;-79
2021/05/18 13:38:19;;;;;;;2.10;1.50;;;;;;;18.40;52.99;100754.84;5013367;28;20032;-79
2021/05/18 13:40:45;;;;;;;2.75;1.98;;;;;;;18.25;53.55;100756.34;4991605;28;20091;-80
2021/05/18 13:43:10;;;;;;;5.30;3.33;;;;;;;18.33;56.65;100755.59;5007380;28;20034;-79
2021/05/18 13:45:36;;;;;;;6.22;3.35;;;;;;;18.18;57.40;100755.19;5009179;28;20088;-79
2021/05/18 13:48:02;;;;;;;2.72;1.88;;;;;;;18.20;56.66;100755.94;5008104;28;20060;-79
2021/05/18 13:50:29;;;;;;;2.50;1.95;;;;;;;18.23;58.28;100746.59;5009465;28;20041;-79
2021/05/18 13:52:58;;;;;;;9.55;5.15;;;;;;;18.38;55.69;100756.88;5007632;28;20042;-79
2021/05/18 13:55:24;;;;;;;4.03;2.78;;;;;;;18.31;57.30;100755.75;5008158;28;20042;-83
2021/05/18 13:57:50;;;;;;;4.72;2.80;;;;;;;18.33;58.16;100747.44;5009782;28;20406;-81
2021/05/18 14:00:17;;;;;;;3.95;2.47;;;;;;;18.52;57.57;100747.34;5007821;28;20033;-79
2021/05/18 14:02:44;;;;;;;3.67;2.10;;;;;;;18.85;52.69;100751.41;5008450;28;20029;-79
2021/05/18 14:05:18;;;;;;;2.63;2.30;;;;;;;19.22;51.17;100745.88;4994690;28;20121;-81
2021/05/18 14:10:35;;;;;;;31.35;17.67;;;;;;;19.27;47.87;100736.25;5006423;28;20197;-81
2021/05/18 14:13:01;;;;;;;14.82;7.82;;;;;;;19.62;50.97;100745.50;4991169;28;20598;-79
2021/05/18 14:15:26;;;;;;;9.98;5.68;;;;;;;19.52;48.02;100741.97;5010649;28;20037;-81
2021/05/18 14:17:52;;;;;;;5.63;4.55;;;;;;;19.52;49.69;100748.28;4990057;28;20030;-82
2021/05/18 14:20:17;;;;;;;24.08;16.02;;;;;;;19.29;51.30;100738.81;5006689;28;20033;-79
2021/05/18 14:22:43;;;;;;;11.70;6.65;;;;;;;19.12;51.81;100739.66;4993637;28;20057;-79
2021/05/18 14:25:09;;;;;;;5.88;4.70;;;;;;;19.01;51.75;100748.88;5008544;28;20180;-81
2021/05/18 14:27:36;;;;;;;5.93;4.45;;;;;;;18.96;51.28;100741.16;5009110;28;20030;-78
2021/05/18 14:30:08;;;;;;;9.98;4.75;;;;;;;18.89;51.00;100744.66;5007202;28;20119;-78
2021/05/18 14:32:33;;;;;;;11.05;4.63;;;;;;;18.80;50.81;100746.44;5006721;28;20068;-78
2021/05/18 14:34:59;;;;;;;8.27;4.95;;;;;;;18.69;51.93;100748.50;5006568;28;20061;-79
2021/05/18 14:37:24;;;;;;;6.63;4.47;;;;;;;18.67;53.18;100750.50;5009162;28;20034;-79
2021/05/18 14:40:10;;;;;;;6.57;5.53;;;;;;;18.69;55.30;100753.94;5013531;28;20025;-79
2021/05/18 14:45:27;;;;;;;8.02;6.72;;;;;;;18.55;60.03;100757.97;5009071;28;20030;-80
2021/05/18 14:56:05;;;;;;;6.68;4.90;;;;;;;19.01;57.74;100748.88;5008511;28;20026;-78
2021/05/18 14:58:31;;;;;;;7.57;4.15;;;;;;;19.00;59.03;100763.50;4987936;28;20108;-78
2021/05/18 15:00:57;;;;;;;7.43;5.40;;;;;;;19.07;57.78;100759.16;5006415;28;20049;-79
2021/05/18 15:03:23;;;;;;;8.18;5.20;;;;;;;18.63;59.97;100768.13;5012261;28;20034;-78
2021/05/18 15:05:51;;;;;;;7.80;5.18;;;;;;;18.49;60.60;100767.56;5009197;28;20030;-78
2021/05/18 15:08:17;;;;;;;5.63;4.40;;;;;;;18.32;58.99;100762.03;4992747;28;20069;-78
2021/05/18 15:10:45;;;;;;;7.50;4.10;;;;;;;18.27;55.83;100765.19;5003173;28;20070;-79
2021/05/18 15:13:10;;;;;;;7.35;4.63;;;;;;;18.23;59.51;100755.63;5008590;28;20521;-80
2021/05/18 15:15:37;;;;;;;7.20;4.55;;;;;;;17.99;57.87;100755.22;5005092;28;20061;-78
2021/05/18 15:18:03;;;;;;;6.53;4.53;;;;;;;17.78;58.95;100758.97;5008020;28;20487;-79
2021/05/18 15:20:28;;;;;;;7.05;4.43;;;;;;;17.69;60.33;100757.13;5008534;28;20041;-77
2021/05/18 15:22:54;;;;;;;10.73;5.50;;;;;;;17.74;60.11;100752.13;5003534;28;20148;-78
2021/05/18 15:25:21;;;;;;;7.53;4.30;;;;;;;17.72;60.19;100764.09;5009212;28;20034;-78
2021/05/18 15:27:47;;;;;;;8.25;4.80;;;;;;;17.51;60.47;100766.94;4991104;28;20637;-78
2021/05/18 15:30:13;;;;;;;11.93;4.93;;;;;;;17.18;63.78;100770.91;4984640;28;20068;-77
2021/05/18 15:32:39;;;;;;;6.60;4.70;;;;;;;17.07;66.14;100767.44;5005043;28;20041;-78
2021/05/18 15:35:07;;;;;;;8.38;4.80;;;;;;;16.88;65.68;100766.41;5006559;28;20302;-78
2021/05/18 15:37:33;;;;;;;10.60;5.53;;;;;;;16.57;67.61;100770.09;5011135;28;20394;-77
2021/05/18 15:39:59;;;;;;;7.78;5.47;;;;;;;16.49;69.73;100768.06;5007797;28;20048;-78
2021/05/18 15:42:24;;;;;;;14.52;5.82;;;;;;;16.61;71.43;100749.88;5006046;28;20022;-78
2021/05/18 15:44:50;;;;;;;8.45;5.97;;;;;;;16.72;75.34;100752.50;5011352;28;20403;-78
2021/05/18 15:47:16;;;;;;;10.75;6.47;;;;;;;16.78;77.10;100751.97;5010398;28;20033;-79
2021/05/18 15:49:52;;;;;;;8.27;6.20;;;;;;;16.79;75.20;100759.06;5035178;22;20037;-79
2021/05/18 15:52:18;;;;;;;8.20;5.90;;;;;;;16.80;76.33;100766.22;5079142;28;20050;-78
2021/05/18 15:54:46;;;;;;;6.40;5.38;;;;;;;16.98;77.21;100758.28;5089417;28;20642;-79
2021/05/18 15:57:12;;;;;;;9.02;6.03;;;;;;;17.26;77.72;100764.78;5108148;28;20031;-79
2021/05/18 15:59:37;;;;;;;7.13;5.43;;;;;;;17.42;70.13;100767.78;5120996;28;20055;-79
2021/05/18 16:02:03;;;;;;;9.75;5.68;;;;;;;17.49;69.89;100776.22;5090151;28;20402;-79
2021/05/18 16:04:28;;;;;;;8.60;5.38;;;;;;;17.57;70.92;100774.53;5102548;27;20038;-79
2021/05/18 16:06:56;;;;;;;7.28;5.18;;;;;;;17.77;72.10;100773.53;5103329;27;20023;-79
2021/05/18 16:09:21;;;;;;;12.38;6.53;;;;;;;17.78;67.00;100774.41;5092467;28;20024;-79
2021/05/18 16:11:47;;;;;;;8.88;6.05;;;;;;;17.69;67.19;100787.00;5093673;27;20042;-80
2021/05/18 16:14:12;;;;;;;11.07;6.70;;;;;;;17.79;68.14;100782.41;5096352;27;20490;-79
2021/05/18 16:16:38;;;;;;;7.22;5.70;;;;;;;17.91;65.12;100784.97;5109712;28;20059;-78
2021/05/18 16:19:04;;;;;;;10.57;6.38;;;;;;;17.65;65.06;100782.00;5119223;27;20031;-78
2021/05/18 16:21:32;;;;;;;11.23;6.88;;;;;;;17.37;65.09;100781.78;5106578;28;20026;-78
2021/05/18 16:23:57;;;;;;;7.97;5.95;;;;;;;17.26;66.03;100784.63;5118033;27;20042;-79
2021/05/18 16:26:28;;;;;;;7.82;5.72;;;;;;;17.36;66.58;100777.34;5102484;28;20032;-77
2021/05/18 16:28:55;;;;;;;7.68;5.40;;;;;;;17.50;66.09;100776.09;5097819;27;20027;-79